createdAt,value
2022-08-04T00:00:12.535Z,99900.00
2022-08-04T00:01:33.809Z,99903.69
2022-08-04T00:02:47.659Z,99897.53
2022-08-04T00:04:09.026Z,99898.34
2022-08-04T00:05:12.816Z,99896.69
2022-08-04T00:06:17.803Z,99895.06
2022-08-04T00:07:23.764Z,99893.41
2022-08-04T00:08:45.980Z,99892.94
2022-08-04T00:09:53.460Z,99899.91
2022-08-04T00:10:55.359Z,99897.44
2022-08-04T00:11:57.792Z,99897.03
2022-08-04T00:12:59.515Z,99894.97
2022-08-04T00:14:03.585Z,99898.25
2022-08-04T00:15:06.399Z,99910.53
2022-08-04T00:16:10.899Z,99905.19
2022-08-04T00:17:12.452Z,99903.53
2022-08-04T00:18:15.092Z,99901.03
2022-08-04T00:19:17.592Z,99912.09
2022-08-04T00:20:19.398Z,99909.63
2022-08-04T00:21:20.940Z,99902.22
2022-08-04T00:22:22.927Z,99904.69
2022-08-04T00:23:24.407Z,99905.91
2022-08-04T00:24:25.964Z,99901.38
2022-08-04T00:25:27.523Z,99906.31
2022-08-04T00:26:28.995Z,99898.09
2022-08-04T00:27:30.770Z,99907.91
2022-08-04T00:28:32.331Z,99907.91
2022-08-04T00:29:34.374Z,99902.97
2022-08-04T00:30:35.871Z,99902.53
2022-08-04T00:31:56.285Z,99909.50
2022-08-04T00:32:58.939Z,99901.28
2022-08-04T00:34:00.447Z,99906.22
2022-08-04T00:35:01.959Z,99902.50
2022-08-04T00:36:03.528Z,99905.78
2022-08-04T00:37:05.546Z,99907.00
2022-08-04T00:38:07.292Z,99909.06
2022-08-04T00:39:09.487Z,99908.59
2022-08-04T00:40:29.582Z,99906.13
2022-08-04T00:41:45.157Z,99895.38
2022-08-04T00:43:16.887Z,99914.28
2022-08-04T00:44:24.297Z,99915.91
2022-08-04T00:46:00.466Z,99910.53
2022-08-04T00:46:54.044Z,99911.34
2022-08-04T00:47:59.123Z,99916.66
2022-08-04T00:49:00.623Z,99908.88
2022-08-04T00:50:08.147Z,99911.31
2022-08-04T00:51:16.266Z,99910.91
2022-08-04T00:52:33.030Z,99906.38
2022-08-04T00:53:37.750Z,99905.56
2022-08-04T00:55:08.456Z,99906.78
2022-08-04T00:56:10.491Z,99911.22
2022-08-04T00:57:35.051Z,99909.59
2022-08-04T00:58:36.588Z,99916.53
2022-08-04T00:59:41.096Z,99907.50
2022-08-04T01:00:48.652Z,99911.19
2022-08-04T01:01:59.322Z,99907.50
2022-08-04T01:03:14.370Z,99909.13
2022-08-04T01:04:22.408Z,99913.22
2022-08-04T01:05:27.156Z,99909.06
2022-08-04T01:06:36.111Z,99911.94
2022-08-04T01:07:43.075Z,99898.75
2022-08-04T01:08:53.790Z,99904.09
2022-08-04T01:09:55.256Z,99908.19
2022-08-04T01:11:15.298Z,99903.69
2022-08-04T01:12:16.839Z,99907.75
2022-08-04T01:13:27.311Z,99904.47
2022-08-04T01:14:31.635Z,99905.69
2022-08-04T01:15:57.108Z,99909.78
2022-08-04T01:16:58.463Z,99904.03
2022-08-04T01:18:05.069Z,99900.75
2022-08-04T01:19:08.151Z,99901.97
2022-08-04T01:20:10.075Z,99898.66
2022-08-04T01:21:26.434Z,99903.94
2022-08-04T01:22:33.967Z,99893.72
2022-08-04T01:23:35.424Z,99903.53
2022-08-04T01:24:36.934Z,99893.28
2022-08-04T01:25:57.510Z,99889.59
2022-08-04T01:27:25.183Z,99894.06
2022-08-04T01:28:35.090Z,99885.06
2022-08-04T01:29:57.193Z,99899.38
2022-08-04T01:31:01.572Z,99893.19
2022-08-04T01:32:13.626Z,99888.69
2022-08-04T01:33:15.166Z,99889.91
2022-08-04T01:34:16.832Z,99888.25
2022-08-04T01:35:22.246Z,99889.47
2022-08-04T01:36:50.036Z,99889.88
2022-08-04T01:38:01.595Z,99887.41
2022-08-04T01:39:27.838Z,99890.66
2022-08-04T01:40:29.467Z,99888.59
2022-08-04T01:41:32.529Z,99889.75
2022-08-04T01:42:35.070Z,99879.91
2022-08-04T01:43:40.555Z,99894.63
2022-08-04T01:44:42.100Z,99888.88
2022-08-04T01:45:43.693Z,99891.31
2022-08-04T01:46:46.293Z,99883.47
2022-08-04T01:47:51.548Z,99890.41
2022-08-04T01:48:53.847Z,99892.03
2022-08-04T01:49:55.590Z,99892.44
2022-08-04T01:50:57.837Z,99882.16
2022-08-04T01:51:59.378Z,99886.25
2022-08-04T01:53:03.193Z,99880.50
2022-08-04T01:54:04.871Z,99880.91
2022-08-04T01:55:07.256Z,99881.28
2022-08-04T01:56:09.492Z,99885.38
2022-08-04T01:57:38.830Z,99887.03
2022-08-04T01:58:32.924Z,99887.41
2022-08-04T01:59:34.407Z,99892.28
2022-08-04T02:00:35.919Z,99891.47
2022-08-04T02:01:37.577Z,99892.69
2022-08-04T02:02:39.343Z,99891.88
2022-08-04T02:04:21.746Z,99887.34
2022-08-04T02:05:03.272Z,99890.22
2022-08-04T02:06:04.805Z,99884.88
2022-08-04T02:07:06.327Z,99887.75
2022-08-04T02:08:10.831Z,99891.00
2022-08-04T02:09:12.908Z,99885.28
2022-08-04T02:10:33.121Z,99885.66
2022-08-04T02:11:34.804Z,99893.00
2022-08-04T02:12:51.429Z,99882.75
2022-08-04T02:14:12.556Z,99875.75
2022-08-04T02:15:18.072Z,99882.69
2022-08-04T02:16:19.528Z,99872.84
2022-08-04T02:17:24.200Z,99877.75
2022-08-04T02:18:52.062Z,99882.22
2022-08-04T02:19:53.617Z,99875.69
2022-08-04T02:20:59.001Z,99872.38
2022-08-04T02:22:07.066Z,99874.41
2022-08-04T02:23:09.850Z,99885.03
2022-08-04T02:24:13.122Z,99873.94
2022-08-04T02:25:14.646Z,99876.81
2022-08-04T02:26:22.718Z,99881.72
2022-08-04T02:27:25.746Z,99878.03
2022-08-04T02:28:30.368Z,99873.53
2022-08-04T02:29:35.139Z,99877.59
2022-08-04T02:30:55.210Z,99881.69
2022-08-04T02:32:00.655Z,99879.22
2022-08-04T02:33:02.669Z,99878.38
2022-08-04T02:34:08.119Z,99877.56
2022-08-04T02:35:12.983Z,99870.19
2022-08-04T02:36:17.554Z,99877.94
2022-08-04T02:37:19.066Z,99878.34
2022-08-04T02:38:25.359Z,99875.88
2022-08-04T02:39:29.224Z,99875.06
2022-08-04T02:40:31.603Z,99875.88
2022-08-04T02:41:42.087Z,99877.09
2022-08-04T02:42:43.568Z,99877.44
2022-08-04T02:43:51.190Z,99876.63
2022-08-04T02:44:53.809Z,99873.31
2022-08-04T02:45:55.706Z,99870.84
2022-08-04T02:46:57.368Z,99876.97
2022-08-04T02:48:29.458Z,99878.19
2022-08-04T02:49:21.632Z,99881.00
2022-08-04T02:50:29.032Z,99880.53
2022-08-04T02:51:33.152Z,99876.84
2022-08-04T02:52:34.634Z,99880.09
2022-08-04T02:53:36.170Z,99879.66
2022-08-04T02:54:39.478Z,99878.84
2022-08-04T02:55:41.668Z,99869.41
2022-08-04T02:56:53.424Z,99875.53
2022-08-04T02:57:54.906Z,99873.88
2022-08-04T02:59:01.152Z,99872.22
2022-08-04T03:00:08.283Z,99882.03
2022-08-04T03:01:09.830Z,99877.50
2022-08-04T03:02:11.353Z,99882.41
2022-08-04T03:03:26.141Z,99886.09
2022-08-04T03:04:39.583Z,99886.84
2022-08-04T03:06:01.538Z,99882.34
2022-08-04T03:07:14.495Z,99880.69
2022-08-04T03:08:35.903Z,99882.72
2022-08-04T03:09:46.452Z,99883.13
2022-08-04T03:11:03.032Z,99884.31
2022-08-04T03:12:23.067Z,99883.50
2022-08-04T03:13:45.344Z,99877.34
2022-08-04T03:14:58.987Z,99873.22
2022-08-04T03:16:01.610Z,99885.84
2022-08-04T03:17:05.932Z,99878.47
2022-08-04T03:18:14.283Z,99880.91
2022-08-04T03:19:34.380Z,99876.41
2022-08-04T03:20:38.997Z,99882.13
2022-08-04T03:21:49.546Z,99887.00
2022-08-04T03:23:14.083Z,99883.72
2022-08-04T03:24:24.635Z,99884.09
2022-08-04T03:25:29.155Z,99881.94
2022-08-04T03:26:33.648Z,99893.91
2022-08-04T03:27:53.815Z,99887.34
2022-08-04T03:29:04.365Z,99884.88
2022-08-04T03:30:24.694Z,99886.09
2022-08-04T03:31:28.678Z,99874.53
2022-08-04T03:32:49.735Z,99878.69
2022-08-04T03:33:57.315Z,99879.91
2022-08-04T03:35:22.520Z,99883.97
2022-08-04T03:36:29.926Z,99888.03
2022-08-04T03:37:36.370Z,99892.94
2022-08-04T03:38:37.893Z,99891.28
2022-08-04T03:39:54.063Z,99886.41
2022-08-04T03:41:04.346Z,99890.84
2022-08-04T03:42:08.013Z,99891.25
2022-08-04T03:43:59.081Z,99886.72
2022-08-04T03:44:52.276Z,99895.31
2022-08-04T03:45:53.786Z,99890.81
2022-08-04T03:47:13.726Z,99892.84
2022-08-04T03:48:33.729Z,99887.03
2022-08-04T03:49:50.660Z,99880.50
2022-08-04T03:51:34.857Z,99891.50
2022-08-04T03:53:09.190Z,99899.25
2022-08-04T03:54:33.070Z,99886.16
2022-08-04T03:55:52.834Z,99888.19
2022-08-04T03:57:00.381Z,99895.94
2022-08-04T03:58:17.690Z,99894.69
2022-08-04T03:59:32.126Z,99897.94
2022-08-04T04:00:36.192Z,99891.75
2022-08-04T04:02:01.925Z,99890.09
2022-08-04T04:03:10.223Z,99890.38
2022-08-04T04:04:14.721Z,99891.16
2022-08-04T04:05:19.198Z,99892.38
2022-08-04T04:06:30.498Z,99891.78
2022-08-04T04:07:36.279Z,99896.34
2022-08-04T04:08:49.586Z,99906.13
2022-08-04T04:10:06.359Z,99897.94
2022-08-04T04:11:11.741Z,99896.28
2022-08-04T04:12:23.658Z,99894.66
2022-08-04T04:13:29.957Z,99903.59
2022-08-04T04:14:50.272Z,99906.84
2022-08-04T04:15:52.119Z,99893.75
2022-08-04T04:17:05.614Z,99894.97
2022-08-04T04:18:16.040Z,99900.69
2022-08-04T04:19:17.572Z,99904.72
2022-08-04T04:20:22.054Z,99904.72
2022-08-04T04:21:27.258Z,99899.00
2022-08-04T04:22:38.343Z,99900.59
2022-08-04T04:23:58.487Z,99899.78
2022-08-04T04:25:16.077Z,99905.03
2022-08-04T04:26:36.521Z,99902.19
2022-08-04T04:27:38.013Z,99904.22
2022-08-04T04:28:52.047Z,99905.03
2022-08-04T04:29:53.563Z,99899.34
2022-08-04T04:31:00.999Z,99901.38
2022-08-04T04:32:05.990Z,99903.41
2022-08-04T04:33:19.077Z,99898.50
2022-08-04T04:34:31.401Z,99906.69
2022-08-04T04:35:34.555Z,99901.38
2022-08-04T04:36:54.823Z,99903.84
2022-08-04T04:37:59.398Z,99905.03
2022-08-04T04:39:07.153Z,99910.75
2022-08-04T04:40:08.692Z,99910.75
2022-08-04T04:41:13.202Z,99911.97
2022-08-04T04:42:23.580Z,99909.13
2022-08-04T04:43:50.514Z,99904.59
2022-08-04T04:45:11.315Z,99906.63
2022-08-04T04:46:31.507Z,99912.34
2022-08-04T04:48:09.160Z,99902.13
2022-08-04T04:49:00.397Z,99904.16
2022-08-04T04:50:09.151Z,99905.00
2022-08-04T04:51:20.805Z,99904.16
2022-08-04T04:52:34.286Z,99908.66
2022-08-04T04:53:35.823Z,99900.91
2022-08-04T04:54:56.264Z,99906.63
2022-08-04T04:56:03.820Z,99897.63
2022-08-04T04:57:07.725Z,99904.16
2022-08-04T04:58:12.444Z,99908.66
2022-08-04T04:59:15.639Z,99902.97
2022-08-04T05:00:17.592Z,99905.81
2022-08-04T05:01:19.062Z,99907.47
2022-08-04T05:02:39.435Z,99903.78
2022-08-04T05:03:48.826Z,99903.41
2022-08-04T05:05:00.926Z,99907.47
2022-08-04T05:06:15.256Z,99912.34
2022-08-04T05:07:16.778Z,99915.66
2022-08-04T05:08:43.127Z,99899.28
2022-08-04T05:10:03.017Z,99915.59
2022-08-04T05:11:25.760Z,99903.34
2022-08-04T05:14:32.063Z,99909.88
2022-08-04T05:14:36.572Z,99918.44
2022-08-04T05:15:16.525Z,99915.59
2022-08-04T05:16:35.233Z,99908.66
2022-08-04T05:17:36.707Z,99910.69
2022-08-04T05:18:40.550Z,99908.66
2022-08-04T05:19:47.800Z,99918.91
2022-08-04T05:20:51.545Z,99915.59
2022-08-04T05:21:54.858Z,99907.84
2022-08-04T05:23:13.139Z,99919.66
2022-08-04T05:24:17.302Z,99917.25
2022-08-04T05:25:18.827Z,99916.03
2022-08-04T05:26:20.518Z,99923.41
2022-08-04T05:27:23.323Z,99923.41
2022-08-04T05:28:26.903Z,99922.19
2022-08-04T05:29:30.983Z,99925.50
2022-08-04T05:30:48.365Z,99929.63
2022-08-04T05:31:50.838Z,99919.84
2022-08-04T05:32:57.404Z,99925.56
2022-08-04T05:34:05.741Z,99931.75
2022-08-04T05:35:10.284Z,99924.00
2022-08-04T05:36:18.956Z,99921.56
2022-08-04T05:37:22.830Z,99926.91
2022-08-04T05:38:32.088Z,99932.25
2022-08-04T05:39:35.883Z,99931.84
2022-08-04T05:40:38.136Z,99925.75
2022-08-04T05:41:45.369Z,99932.78
2022-08-04T05:42:49.330Z,99926.19
2022-08-04T05:43:50.863Z,99928.31
2022-08-04T05:44:52.334Z,99930.78
2022-08-04T05:45:53.888Z,99932.88
2022-08-04T05:46:56.137Z,99941.56
2022-08-04T05:47:57.659Z,99931.75
2022-08-04T05:48:59.239Z,99935.09
2022-08-04T05:50:04.410Z,99932.69
2022-08-04T05:51:06.360Z,99935.97
2022-08-04T05:52:07.916Z,99935.22
2022-08-04T05:53:09.847Z,99929.94
2022-08-04T05:54:11.397Z,99938.13
2022-08-04T05:55:12.919Z,99933.31
2022-08-04T05:56:34.826Z,99927.66
2022-08-04T05:57:36.395Z,99935.44
2022-08-04T05:58:37.916Z,99933.84
2022-08-04T05:59:39.578Z,99933.94
2022-08-04T06:00:41.777Z,99929.47
2022-08-04T06:01:57.285Z,99935.25
2022-08-04T06:02:59.326Z,99934.47
2022-08-04T06:04:01.424Z,99929.22
2022-08-04T06:05:03.125Z,99921.91
2022-08-04T06:06:04.671Z,99927.69
2022-08-04T06:07:06.509Z,99924.44
2022-08-04T06:08:13.605Z,99931.41
2022-08-04T06:09:15.631Z,99934.34
2022-08-04T06:10:17.520Z,99929.50
2022-08-04T06:11:19.187Z,99930.41
2022-08-04T06:12:25.495Z,99925.97
2022-08-04T06:13:48.608Z,99927.22
2022-08-04T06:14:50.790Z,99926.06
2022-08-04T06:15:52.540Z,99930.63
2022-08-04T06:16:55.251Z,99927.41
2022-08-04T06:19:57.459Z,99923.75
2022-08-04T06:20:01.891Z,99930.78
2022-08-04T06:20:49.926Z,99923.91
2022-08-04T06:21:52.429Z,99931.72
2022-08-04T06:22:54.519Z,99928.09
2022-08-04T06:24:02.367Z,99920.75
2022-08-04T06:25:06.281Z,99929.00
2022-08-04T06:26:11.287Z,99923.72
2022-08-04T06:27:12.788Z,99923.75
2022-08-04T06:28:14.513Z,99928.28
2022-08-04T06:29:26.669Z,99924.66
2022-08-04T06:30:28.475Z,99932.06
2022-08-04T06:32:31.377Z,99939.91
2022-08-04T06:33:13.827Z,99935.50
2022-08-04T06:34:16.096Z,99938.41
2022-08-04T06:35:20.345Z,99935.16
2022-08-04T06:36:21.851Z,99934.75
2022-08-04T06:37:42.266Z,99943.38
2022-08-04T06:38:45.045Z,99936.06
2022-08-04T06:39:46.592Z,99934.03
2022-08-04T06:40:48.774Z,99937.75
2022-08-04T06:42:02.438Z,99945.97
2022-08-04T06:43:12.573Z,99943.13
2022-08-04T06:44:14.104Z,99949.75
2022-08-04T06:45:15.673Z,99946.09
2022-08-04T06:46:17.202Z,99948.16
2022-08-04T06:47:22.130Z,99943.69
2022-08-04T06:48:23.901Z,99948.25
2022-08-04T06:49:55.122Z,99940.53
2022-08-04T06:51:27.260Z,99947.09
2022-08-04T06:52:18.109Z,99937.75
2022-08-04T06:53:19.641Z,99942.72
2022-08-04T06:54:21.111Z,99948.88
2022-08-04T06:55:25.113Z,99939.47
2022-08-04T06:56:26.662Z,99940.72
2022-08-04T06:57:28.602Z,99944.88
2022-08-04T06:58:31.338Z,99941.63
2022-08-04T06:59:32.894Z,99942.88
2022-08-04T07:00:34.497Z,99943.72
2022-08-04T07:01:36.078Z,99938.41
2022-08-04T07:02:45.391Z,99948.69
2022-08-04T07:03:47.019Z,99940.50
2022-08-04T07:04:52.380Z,99942.97
2022-08-04T07:05:53.890Z,99936.84
2022-08-04T07:06:55.543Z,99936.47
2022-08-04T07:07:58.781Z,99946.34
2022-08-04T07:09:00.769Z,99939.00
2022-08-04T07:10:02.296Z,99938.59
2022-08-04T07:11:04.012Z,99933.28
2022-08-04T07:12:06.134Z,99932.06
2022-08-04T07:13:07.697Z,99935.81
2022-08-04T07:14:09.250Z,99933.38
2022-08-04T07:15:10.832Z,99928.47
2022-08-04T07:16:16.029Z,99929.34
2022-08-04T07:17:17.592Z,99938.41
2022-08-04T07:18:19.195Z,99939.25
2022-08-04T07:19:20.748Z,99933.91
2022-08-04T07:20:34.778Z,99942.50
2022-08-04T07:21:37.975Z,99944.59
2022-08-04T07:22:40.419Z,99937.63
2022-08-04T07:23:41.899Z,99942.56
2022-08-04T07:24:43.476Z,99941.75
2022-08-04T07:25:59.782Z,99934.38
2022-08-04T07:27:12.153Z,99930.28
2022-08-04T07:28:13.733Z,99936.00
2022-08-04T07:29:15.245Z,99930.28
2022-08-04T07:30:17.190Z,99930.31
2022-08-04T07:31:34.492Z,99941.81
2022-08-04T07:32:37.815Z,99933.63
2022-08-04T07:33:40.025Z,99936.91
2022-08-04T07:34:42.364Z,99936.09
2022-08-04T07:36:04.480Z,99941.03
2022-08-04T07:37:05.758Z,99944.34
2022-08-04T07:38:09.698Z,99941.09
2022-08-04T07:39:11.332Z,99936.19
2022-08-04T07:40:29.906Z,99932.06
2022-08-04T07:41:38.724Z,99941.13
2022-08-04T07:42:40.359Z,99941.53
2022-08-04T07:43:41.902Z,99930.03
2022-08-04T07:44:43.424Z,99934.59
2022-08-04T07:45:46.947Z,99937.06
2022-08-04T07:46:48.450Z,99934.22
2022-08-04T07:48:04.372Z,99934.63
2022-08-04T07:49:07.474Z,99934.69
2022-08-04T07:50:12.977Z,99939.66
2022-08-04T07:51:14.635Z,99936.81
2022-08-04T07:52:16.195Z,99940.53
2022-08-04T07:53:54.029Z,99935.63
2022-08-04T07:54:40.044Z,99943.44
2022-08-04T07:55:41.567Z,99935.69
2022-08-04T07:56:43.137Z,99934.03
2022-08-04T07:57:44.901Z,99940.66
2022-08-04T07:58:46.548Z,99941.06
2022-08-04T07:59:51.411Z,99939.44
2022-08-04T08:00:53.073Z,99935.78
2022-08-04T08:01:54.590Z,99931.69
2022-08-04T08:02:56.196Z,99925.13
2022-08-04T08:03:58.042Z,99931.69
2022-08-04T08:04:59.606Z,99939.16
2022-08-04T08:06:30.918Z,99931.72
2022-08-04T08:07:22.771Z,99939.56
2022-08-04T08:08:25.255Z,99930.94
2022-08-04T08:09:26.768Z,99934.22
2022-08-04T08:10:28.260Z,99929.31
2022-08-04T08:12:35.882Z,99929.34
2022-08-04T08:12:52.343Z,99926.88
2022-08-04T08:13:54.101Z,99924.00
2022-08-04T08:14:55.580Z,99917.84
2022-08-04T08:15:57.067Z,99924.84
2022-08-04T08:16:59.752Z,99926.09
2022-08-04T08:18:01.291Z,99926.50
2022-08-04T08:19:02.855Z,99915.81
2022-08-04T08:20:04.643Z,99919.53
2022-08-04T08:21:07.499Z,99929.38
2022-08-04T08:22:10.547Z,99928.19
2022-08-04T08:23:12.115Z,99920.78
2022-08-04T08:24:13.653Z,99920.41
2022-08-04T08:25:15.144Z,99920.38
2022-08-04T08:26:16.789Z,99923.69
2022-08-04T08:27:19.195Z,99925.34
2022-08-04T08:28:20.909Z,99921.22
2022-08-04T08:29:22.587Z,99925.34
2022-08-04T08:30:25.084Z,99920.41
2022-08-04T08:31:56.591Z,99916.69
2022-08-04T08:32:55.708Z,99913.81
2022-08-04T08:33:59.091Z,99918.75
2022-08-04T08:35:00.760Z,99913.41
2022-08-04T08:36:08.268Z,99921.63
2022-08-04T08:37:12.491Z,99912.19
2022-08-04T08:38:14.557Z,99915.47
2022-08-04T08:39:21.637Z,99920.81
2022-08-04T08:40:49.188Z,99908.03
2022-08-04T08:42:09.162Z,99914.63
2022-08-04T08:44:00.350Z,99908.41
2022-08-04T08:44:38.293Z,99912.56
2022-08-04T08:45:42.020Z,99914.59
2022-08-04T08:47:01.729Z,99913.75
2022-08-04T08:48:06.705Z,99911.28
2022-08-04T08:49:11.799Z,99908.78
2022-08-04T08:50:52.145Z,99915.38
2022-08-04T08:52:04.183Z,99915.34
2022-08-04T08:53:14.284Z,99914.13
2022-08-04T08:54:24.696Z,99907.09
2022-08-04T08:55:26.343Z,99916.56
2022-08-04T08:56:36.317Z,99911.59
2022-08-04T08:57:59.788Z,99912.81
2022-08-04T08:59:02.262Z,99911.97
2022-08-04T09:00:03.731Z,99918.13
2022-08-04T09:01:14.567Z,99916.03
2022-08-04T09:02:35.213Z,99917.66
2022-08-04T09:03:55.296Z,99917.66
2022-08-04T09:05:08.418Z,99918.50
2022-08-04T09:06:48.444Z,99908.56
2022-08-04T09:07:58.770Z,99909.78
2022-08-04T09:09:09.323Z,99903.59
2022-08-04T09:10:12.527Z,99911.00
2022-08-04T09:11:23.867Z,99904.38
2022-08-04T09:12:30.307Z,99912.59
2022-08-04T09:13:37.429Z,99915.06
2022-08-04T09:14:40.407Z,99913.00
2022-08-04T09:16:01.690Z,99912.13
2022-08-04T09:17:04.019Z,99914.16
2022-08-04T09:18:24.347Z,99915.75
2022-08-04T09:19:39.870Z,99908.72
2022-08-04T09:20:47.390Z,99904.16
2022-08-04T09:21:53.602Z,99908.63
2022-08-04T09:23:06.102Z,99917.66
2022-08-04T09:24:34.747Z,99906.13
2022-08-04T09:25:41.383Z,99916.03
2022-08-04T09:26:48.960Z,99913.91
2022-08-04T09:28:06.112Z,99912.22
2022-08-04T09:29:14.644Z,99910.94
2022-08-04T09:30:18.084Z,99908.03
2022-08-04T09:31:23.474Z,99918.72
2022-08-04T09:32:28.856Z,99920.31
2022-08-04T09:33:44.230Z,99916.56
2022-08-04T09:35:05.178Z,99915.22
2022-08-04T09:36:33.340Z,99911.91
2022-08-04T09:37:45.627Z,99906.06
2022-08-04T09:38:52.580Z,99907.69
2022-08-04T09:39:57.056Z,99906.75
2022-08-04T09:41:20.816Z,99910.84
2022-08-04T09:42:33.359Z,99906.59
2022-08-04T09:43:59.309Z,99900.75
2022-08-04T09:45:42.651Z,99905.66
2022-08-04T09:47:04.363Z,99901.91
2022-08-04T09:48:07.096Z,99906.41
2022-08-04T09:49:14.677Z,99902.25
2022-08-04T09:50:34.958Z,99902.63
2022-08-04T09:51:57.998Z,99901.28
2022-08-04T09:53:19.919Z,99911.09
2022-08-04T09:54:39.849Z,99897.00
2022-08-04T09:55:54.374Z,99902.22
2022-08-04T09:57:15.836Z,99903.41
2022-08-04T09:58:39.531Z,99903.28
2022-08-04T09:59:59.634Z,99902.47
2022-08-04T10:01:05.289Z,99904.06
2022-08-04T10:02:07.844Z,99902.41
2022-08-04T10:03:11.581Z,99897.34
2022-08-04T10:04:15.287Z,99895.63
2022-08-04T10:05:41.137Z,99889.41
2022-08-04T10:07:02.516Z,99892.19
2022-08-04T10:08:22.729Z,99894.53
2022-08-04T10:09:34.320Z,99897.31
2022-08-04T10:10:47.651Z,99888.06
2022-08-04T10:11:57.867Z,99885.09
2022-08-04T10:13:01.920Z,99886.28
2022-08-04T10:14:04.776Z,99884.94
2022-08-04T10:15:27.351Z,99885.72
2022-08-04T10:16:37.727Z,99876.50
2022-08-04T10:17:54.476Z,99887.22
2022-08-04T10:18:55.976Z,99875.50
2022-08-04T10:20:45.219Z,99885.31
2022-08-04T10:21:59.202Z,99872.69
2022-08-04T10:23:23.839Z,99879.69
2022-08-04T10:24:30.112Z,99874.53
2022-08-04T10:25:37.523Z,99879.47
2022-08-04T10:26:58.156Z,99875.50
2022-08-04T10:28:06.382Z,99877.53
2022-08-04T10:29:22.765Z,99874.56
2022-08-04T10:30:24.316Z,99878.72
2022-08-04T10:31:35.757Z,99869.28
2022-08-04T10:32:52.127Z,99870.41
2022-08-04T10:34:01.832Z,99861.16
2022-08-04T10:35:08.970Z,99868.09
2022-08-04T10:36:10.686Z,99867.19
2022-08-04T10:37:15.145Z,99864.63
2022-08-04T10:38:27.170Z,99876.53
2022-08-04T10:40:11.103Z,99866.41
2022-08-04T10:41:13.403Z,99867.88
2022-08-04T10:42:27.512Z,99866.09
2022-08-04T10:43:35.212Z,99861.72
2022-08-04T10:44:42.262Z,99865.75
2022-08-04T10:45:47.223Z,99860.69
2022-08-04T10:46:58.291Z,99864.72
2022-08-04T10:48:06.041Z,99854.28
2022-08-04T10:49:16.732Z,99857.84
2022-08-04T10:50:24.422Z,99854.38
2022-08-04T10:51:58.272Z,99858.38
2022-08-04T10:53:07.813Z,99849.50
2022-08-04T10:54:13.455Z,99855.56
2022-08-04T10:55:18.362Z,99850.56
2022-08-04T10:56:22.843Z,99849.31
2022-08-04T10:57:31.677Z,99846.72
2022-08-04T10:58:48.620Z,99852.06
2022-08-04T10:59:50.493Z,99857.78
2022-08-04T11:00:56.785Z,99854.06
2022-08-04T11:02:03.609Z,99841.53
2022-08-04T11:03:20.588Z,99848.59
2022-08-04T11:04:26.976Z,99844.97
2022-08-04T11:05:31.933Z,99839.16
2022-08-04T11:06:33.497Z,99841.91
2022-08-04T11:07:35.055Z,99845.88
2022-08-04T11:08:36.578Z,99836.63
2022-08-04T11:09:38.064Z,99840.59
2022-08-04T11:11:00.606Z,99840.50
2022-08-04T11:12:22.371Z,99839.50
2022-08-04T11:13:29.447Z,99841.84
2022-08-04T11:14:38.879Z,99825.16
2022-08-04T11:15:42.020Z,99827.03
2022-08-04T11:16:44.871Z,99831.56
2022-08-04T11:18:06.847Z,99834.00
2022-08-04T11:19:53.872Z,99823.81
2022-08-04T11:21:07.433Z,99829.44
2022-08-04T11:22:09.685Z,99827.59
2022-08-04T11:23:11.875Z,99819.09
2022-08-04T11:24:13.379Z,99829.03
2022-08-04T11:25:19.384Z,99817.28
2022-08-04T11:26:24.804Z,99822.19
2022-08-04T11:27:28.584Z,99822.06
2022-08-04T11:28:55.817Z,99821.19
2022-08-04T11:30:00.955Z,99831.88
2022-08-04T11:31:21.348Z,99833.50
2022-08-04T11:32:26.915Z,99826.53
2022-08-04T11:33:46.950Z,99824.09
2022-08-04T11:34:53.160Z,99825.72
2022-08-04T11:36:00.722Z,99826.19
2022-08-04T11:37:25.472Z,99824.97
2022-08-04T11:38:32.114Z,99822.81
2022-08-04T11:40:06.980Z,99824.78
2022-08-04T11:41:10.935Z,99812.78
2022-08-04T11:42:22.877Z,99819.31
2022-08-04T11:43:58.646Z,99810.03
2022-08-04T11:45:07.368Z,99810.38
2022-08-04T11:46:09.777Z,99810.84
2022-08-04T11:47:32.797Z,99818.75
2022-08-04T11:48:36.104Z,99815.47
2022-08-04T11:49:57.445Z,99816.28
2022-08-04T11:50:59.524Z,99815.84
2022-08-04T11:52:01.161Z,99817.47
2022-08-04T11:53:02.774Z,99820.38
2022-08-04T11:54:04.309Z,99819.44
2022-08-04T11:55:07.256Z,99823.06
2022-08-04T11:56:13.465Z,99822.13
2022-08-04T11:57:16.784Z,99813.78
2022-08-04T11:58:18.581Z,99817.59
2022-08-04T11:59:20.379Z,99823.41
2022-08-04T12:00:22.348Z,99817.97
2022-08-04T12:01:38.564Z,99811.28
2022-08-04T12:02:54.882Z,99810.03
2022-08-04T12:04:15.095Z,99812.13
2022-08-04T12:05:35.311Z,99810.03
2022-08-04T12:06:38.238Z,99809.91
2022-08-04T12:07:45.550Z,99810.03
2022-08-04T12:08:56.200Z,99805.84
2022-08-04T12:10:16.694Z,99801.63
2022-08-04T12:11:38.207Z,99806.41
2022-08-04T12:12:44.051Z,99796.31
2022-08-04T12:13:49.456Z,99787.91
2022-08-04T12:14:56.880Z,99800.59
2022-08-04T12:16:03.580Z,99794.22
2022-08-04T12:17:05.346Z,99790.75
2022-08-04T12:18:09.597Z,99783.88
2022-08-04T12:19:57.069Z,99793.31
2022-08-04T12:21:03.850Z,99788.50
2022-08-04T12:22:06.451Z,99784.56
2022-08-04T12:23:14.873Z,99791.56
2022-08-04T12:24:20.504Z,99789.56
2022-08-04T12:25:24.874Z,99785.59
2022-08-04T12:26:31.340Z,99792.16
2022-08-04T12:27:35.825Z,99786.19
2022-08-04T12:29:08.524Z,99794.13
2022-08-04T12:30:59.315Z,99792.84
2022-08-04T12:31:28.546Z,99783.06
2022-08-04T12:32:36.922Z,99784.69
2022-08-04T12:34:02.946Z,99787.59
2022-08-04T12:35:15.300Z,99783.16
2022-08-04T12:36:21.866Z,99783.28
2022-08-04T12:37:27.125Z,99778.16
2022-08-04T12:38:29.175Z,99784.69
2022-08-04T12:39:31.042Z,99776.31
2022-08-04T12:40:43.557Z,99786.06
2022-08-04T12:42:07.959Z,99775.38
2022-08-04T12:43:10.742Z,99773.25
2022-08-04T12:44:37.656Z,99772.91
2022-08-04T12:45:34.536Z,99773.94
2022-08-04T12:46:36.713Z,99780.03
2022-08-04T12:47:38.635Z,99771.03
2022-08-04T12:48:41.155Z,99773.34
2022-08-04T12:49:44.037Z,99772.75
2022-08-04T12:50:55.380Z,99774.31
2022-08-04T12:52:08.536Z,99778.59
2022-08-04T12:53:19.530Z,99767.50
2022-08-04T12:54:34.081Z,99765.13
2022-08-04T12:55:35.635Z,99767.47
2022-08-04T12:56:37.311Z,99770.59
2022-08-04T12:57:39.087Z,99765.47
2022-08-04T12:58:44.111Z,99773.63
2022-08-04T12:59:46.010Z,99768.94
2022-08-04T13:00:59.615Z,99759.13
2022-08-04T13:02:07.466Z,99765.97
2022-08-04T13:03:14.231Z,99761.16
2022-08-04T13:04:16.871Z,99761.84
2022-08-04T13:05:18.397Z,99758.44
2022-08-04T13:06:23.797Z,99756.19
2022-08-04T13:07:25.652Z,99763.53
2022-08-04T13:08:27.317Z,99760.84
2022-08-04T13:09:34.339Z,99756.53
2022-08-04T13:10:39.673Z,99763.50
2022-08-04T13:11:41.706Z,99755.88
2022-08-04T13:12:51.383Z,99756.56
2022-08-04T13:14:17.314Z,99758.31
2022-08-04T13:15:17.960Z,99752.81
2022-08-04T13:16:23.764Z,99748.94
2022-08-04T13:17:27.962Z,99748.50
2022-08-04T13:18:41.109Z,99743.78
2022-08-04T13:19:50.174Z,99748.34
2022-08-04T13:20:55.161Z,99754.03
2022-08-04T13:22:02.566Z,99739.44
2022-08-04T13:23:05.292Z,99753.97
2022-08-04T13:24:10.782Z,99736.53
2022-08-04T13:26:44.110Z,99738.91
2022-08-04T13:26:54.914Z,99732.38
2022-08-04T13:27:57.989Z,99734.69